Terminal Aerodrome Forecast
Issued by NWS Duluth, MN

Home | Current Version | Previous Version | Text Only | Print | Product List | Glossary On
Versions: 1 2 3 4 5 6 7 8 9 10 11 12 13 14 15 16 17 18 19 20 21 22 23 24 25 26 27 28 29 30 31
000
FTUS43 KDLH 292058 AAB
TAFDLH
TAF AMD
KDLH 292058Z 2921/3018 29012G22KT P6SM VCSH SCT020 BKN040
      TEMPO 2921/2924 -DZ BKN025
     FM300300 25007KT P6SM SCT050
     FM301500 29012G18KT P6SM SCT070=

USA.gov is the U.S. government's official web portal to all federal, state and local government web resources and services.